Time;durP1;ratioP1;P1;durP2;ratioP2;P2;SDS_P1;SDS_P2;PMS_P1;PMS_P2;Temp;Humidity;BMP_temperature;BMP_pressure;BME280_temperature;BME280_humidity;BME280_pressure;Samples;Min_cycle;Max_cycle;Signal;HPM_P1;HPM_P2
2021/12/16 05:31:18;;;;;;;;;52.50;42.50;;;;;11.22;70.03;103193.19;5492233;23;46461;-52
2021/12/16 05:33:44;;;;;;;;;56.75;41.50;;;;;11.18;70.32;103189.63;4958535;28;45771;-50
2021/12/16 05:36:10;;;;;;;;;51.75;40.50;;;;;11.22;69.66;103198.56;4959619;28;45382;-52
2021/12/16 05:38:35;;;;;;;;;47.25;38.25;;;;;11.21;70.25;103197.66;4959254;28;45428;-52
2021/12/16 05:41:07;;;;;;;;;50.25;40.00;;;;;11.18;70.33;103202.16;4951660;28;45729;-52
2021/12/16 05:43:33;;;;;;;;;45.00;37.00;;;;;11.19;70.39;103201.25;4939795;28;45170;-49
2021/12/16 05:46:00;;;;;;;;;46.00;38.25;;;;;11.26;70.20;103208.34;4940071;28;45541;-50
2021/12/16 05:48:28;;;;;;;;;41.75;35.75;;;;;11.31;70.08;103212.75;4939870;28;45484;-48
2021/12/16 05:50:58;;;;;;;;;47.00;39.25;;;;;11.36;69.46;103218.09;4939891;28;46296;-50
2021/12/16 05:53:24;;;;;;;;;44.75;37.25;;;;;11.36;69.24;103213.63;4939780;28;45382;-49
2021/12/16 05:55:51;;;;;;;;;41.25;36.50;;;;;11.40;69.70;103210.91;4939652;28;45378;-49
2021/12/16 05:58:19;;;;;;;;;42.75;35.00;;;;;11.35;69.67;103217.22;4939010;28;45330;-50
2021/12/16 06:00:48;;;;;;;;;38.50;32.25;;;;;11.41;69.47;103212.66;4939167;28;46179;-49
2021/12/16 06:03:14;;;;;;;;;41.75;36.50;;;;;11.43;69.26;103222.50;4940196;28;45585;-49
2021/12/16 06:05:39;;;;;;;;;44.75;33.00;;;;;11.41;69.42;103227.00;4940016;28;45236;-51
2021/12/16 06:08:05;;;;;;;;;50.25;36.00;;;;;11.42;69.39;103227.88;4939674;28;45770;-52
2021/12/16 06:12:58;;;;;;;;;49.50;37.25;;;;;11.42;69.40;103223.41;4939468;28;45398;-55
2021/12/16 06:15:42;;;;;;;;;34.50;32.50;;;;;11.42;68.91;103218.03;4939207;28;45662;-48
2021/12/16 06:28:55;;;;;;;;;38.75;35.00;;;;;11.56;69.14;103224.16;4939099;28;45413;-52
2021/12/16 06:31:21;;;;;;;;;43.00;34.25;;;;;11.56;68.91;103223.28;4938837;28;45532;-49
2021/12/16 06:33:47;;;;;;;;;39.25;35.75;;;;;11.61;69.05;103229.47;4938822;28;45736;-49
2021/12/16 06:36:13;;;;;;;;;43.75;35.50;;;;;11.66;69.04;103224.94;4939337;28;45374;-50
2021/12/16 06:38:38;;;;;;;;;41.00;36.25;;;;;11.66;68.92;103220.44;4938963;28;46185;-50
2021/12/16 06:41:04;;;;;;;;;47.25;37.00;;;;;11.66;69.20;103216.88;4939161;28;46084;-49
2021/12/16 06:43:31;;;;;;;;;45.00;35.75;;;;;11.66;69.08;103220.44;4938993;28;45761;-51
2021/12/16 06:45:58;;;;;;;;;42.50;37.50;;;;;11.71;69.04;103229.38;4938834;28;45294;-50
2021/12/16 06:48:29;;;;;;;;;45.00;36.00;;;;;11.71;68.97;103226.69;4938865;28;45449;-50
2021/12/16 06:50:59;;;;;;;;;43.75;36.00;;;;;11.79;68.87;103228.44;4938655;28;46500;-50
2021/12/16 06:53:32;;;;;;;;;6.75;2.00;;;;;11.80;68.46;103225.72;4938863;28;45376;-51
2021/12/16 06:56:05;;;;;;;;;38.00;33.75;;;;;11.85;68.22;103237.31;4938968;28;45585;-51
2021/12/16 07:01:12;;;;;;;;;41.75;35.25;;;;;11.92;68.25;103243.50;4938408;28;46195;-49
2021/12/16 07:03:47;;;;;;;;;28.50;27.00;;;;;11.95;67.89;103243.47;4938827;28;45334;-51
2021/12/16 07:06:15;;;;;;;;;42.00;35.25;;;;;11.98;67.82;103243.44;4927047;28;45406;-51
2021/12/16 07:08:42;;;;;;;;;37.25;32.75;;;;;11.97;67.94;103242.56;4940400;28;45826;-48
2021/12/16 07:11:07;;;;;;;;;45.00;34.50;;;;;11.99;67.79;103240.72;4942357;28;46378;-50
2021/12/16 07:13:40;;;;;;;;;34.50;33.50;;;;;12.06;66.87;103253.19;4942138;28;45419;-50
2021/12/16 07:16:05;;;;;;;;;33.00;29.75;;;;;12.08;67.37;103250.47;4942053;28;45356;-51
2021/12/16 07:18:31;;;;;;;;;40.00;31.00;;;;;12.10;67.18;103246.84;4941767;28;45275;-51
2021/12/16 07:20:56;;;;;;;;;40.50;32.50;;;;;12.07;66.97;103243.34;4942054;28;45598;-51
2021/12/16 07:23:22;;;;;;;;;37.25;33.00;;;;;12.13;67.49;103257.59;4943902;28;45446;-52
2021/12/16 07:25:48;;;;;;;;;32.00;30.25;;;;;12.16;66.98;103250.41;4948387;28;45421;-51
2021/12/16 07:28:14;;;;;;;;;35.50;29.75;;;;;12.08;66.37;103240.59;4939739;28;45291;-48
2021/12/16 07:30:42;;;;;;;;;32.00;29.00;;;;;12.14;66.48;103245.03;4941122;28;46084;-50
2021/12/16 07:33:09;;;;;;;;;33.00;28.50;;;;;12.16;66.37;103250.41;4941662;28;45405;-49
2021/12/16 07:35:36;;;;;;;;;28.50;26.00;;;;;12.10;66.49;103249.53;4941497;28;45560;-52
2021/12/16 07:38:02;;;;;;;;;32.25;26.50;;;;;12.13;66.23;103257.59;4941787;28;45379;-50
2021/12/16 07:40:29;;;;;;;;;30.50;28.50;;;;;12.13;65.91;103254.00;4941310;28;46507;-53
2021/12/16 07:45:41;;;;;;;;;35.00;27.75;;;;;12.17;66.24;103258.41;4941433;28;45721;-53
2021/12/16 07:48:08;;;;;;;;;35.00;30.25;;;;;12.21;66.48;103259.28;4941721;28;45436;-52
2021/12/16 07:50:34;;;;;;;;;28.00;23.25;;;;;12.20;66.24;103254.81;4941248;28;45478;-54
2021/12/16 07:53:00;;;;;;;;;29.25;27.25;;;;;12.17;65.88;103247.66;4941339;28;45433;-51
2021/12/16 07:55:26;;;;;;;;;31.25;23.50;;;;;12.20;66.45;103258.38;4941168;28;45442;-51
2021/12/16 07:57:51;;;;;;;;;28.00;28.00;;;;;12.18;66.01;103251.25;4941510;28;45312;-51
2021/12/16 08:00:33;;;;;;;;;29.50;26.00;;;;;12.21;66.04;103257.47;4940917;28;46040;-52
2021/12/16 08:02:59;;;;;;;;;27.25;24.00;;;;;12.24;65.63;103265.53;4941637;28;45378;-50
2021/12/16 08:05:28;;;;;;;;;31.25;26.25;;;;;12.23;65.58;103265.53;4940979;28;45326;-51
2021/12/16 08:07:54;;;;;;;;;39.25;30.25;;;;;12.24;65.83;103265.53;4941564;28;45872;-50
2021/12/16 08:10:22;;;;;;;;;30.50;27.00;;;;;12.27;65.77;103275.34;4940998;28;46071;-49
2021/12/16 08:12:49;;;;;;;;;29.50;25.00;;;;;12.30;66.02;103280.69;4941201;28;45414;-49
2021/12/16 08:15:15;;;;;;;;;32.25;25.75;;;;;12.32;66.25;103282.47;4940743;28;45437;-50
2021/12/16 08:17:42;;;;;;;;;31.25;29.00;;;;;12.32;65.81;103285.16;4940884;28;45458;-52
2021/12/16 08:20:09;;;;;;;;;23.75;23.50;;;;;12.34;66.06;103287.78;4940356;28;46372;-51
2021/12/16 08:22:35;;;;;;;;;25.75;24.25;;;;;12.31;65.74;103277.09;4941430;28;45284;-52
2021/12/16 08:25:00;;;;;;;;;30.00;29.50;;;;;12.36;65.76;103285.97;4940315;28;45716;-53
2021/12/16 08:27:26;;;;;;;;;31.00;25.25;;;;;12.36;65.96;103285.97;4936811;28;45518;-50
2021/12/16 08:29:51;;;;;;;;;27.50;26.50;;;;;12.39;65.41;103285.94;4940344;28;45699;-50
2021/12/16 08:32:16;;;;;;;;;32.25;29.75;;;;;12.35;65.66;103277.00;4940400;28;45470;-49
2021/12/16 08:34:45;;;;;;;;;32.75;27.50;;;;;12.42;65.09;103289.47;4940669;28;45572;-49
2021/12/16 08:37:10;;;;;;;;;30.50;26.00;;;;;12.42;65.06;103286.78;4941224;28;45352;-52
2021/12/16 08:39:36;;;;;;;;;28.75;27.50;;;;;12.44;65.45;103292.16;4940399;28;46001;-50
2021/12/16 08:42:05;;;;;;;;;28.50;24.00;;;;;12.45;65.11;103289.44;4940850;28;45364;-51
2021/12/16 08:44:31;;;;;;;;;26.25;22.25;;;;;12.47;65.49;103290.31;4940116;28;45902;-52
2021/12/16 08:47:03;;;;;;;;;31.50;26.00;;;;;12.48;65.02;103294.78;4938253;28;45424;-50
2021/12/16 08:49:28;;;;;;;;;36.00;29.75;;;;;12.54;64.98;103298.31;4940281;28;45312;-50
2021/12/16 08:51:57;;;;;;;;;25.25;22.25;;;;;12.55;65.02;103300.97;4940857;28;45639;-53
2021/12/16 08:54:23;;;;;;;;;31.75;27.75;;;;;12.52;64.86;103290.25;4940446;28;45400;-53
2021/12/16 08:56:49;;;;;;;;;35.25;28.50;;;;;12.58;64.85;103305.44;4940157;28;45490;-49
2021/12/16 08:59:18;;;;;;;;;24.50;24.25;;;;;12.60;64.81;103298.22;4940100;28;46323;-54
2021/12/16 09:01:50;;;;;;;;;26.25;22.00;;;;;12.64;64.29;103310.72;4939707;28;45410;-54
2021/12/16 09:04:19;;;;;;;;;28.25;26.00;;;;;12.65;64.11;103309.81;4940188;28;45330;-53
2021/12/16 09:06:44;;;;;;;;;31.00;24.50;;;;;12.66;64.34;103301.72;4940455;28;45667;-53
2021/12/16 09:09:10;;;;;;;;;30.25;25.75;;;;;12.65;64.04;103307.13;4940024;28;46702;-54
2021/12/16 09:11:42;;;;;;;;;29.75;25.50;;;;;12.68;63.05;103312.44;4940259;28;45996;-53
2021/12/16 09:14:08;;;;;;;;;30.75;24.75;;;;;12.66;62.90;103312.50;4940009;28;45375;-49
2021/12/16 09:16:34;;;;;;;;;25.25;21.75;;;;;12.65;63.08;103309.81;4939810;28;45574;-51
2021/12/16 09:19:02;;;;;;;;;25.75;22.00;;;;;12.70;62.81;103310.63;4940186;28;46262;-53
2021/12/16 09:21:31;;;;;;;;;26.50;22.50;;;;;12.71;62.41;103316.00;4939885;28;45477;-54
2021/12/16 09:23:59;;;;;;;;;21.75;21.25;;;;;12.74;62.46;103315.09;4940309;28;45395;-51
2021/12/16 09:26:25;;;;;;;;;24.75;20.00;;;;;12.71;62.31;103302.53;4936756;28;45347;-50
2021/12/16 09:28:52;;;;;;;;;21.75;21.00;;;;;12.78;62.06;103331.16;4939423;28;45970;-54
2021/12/16 09:31:20;;;;;;;;;21.75;21.00;;;;;12.79;61.96;103318.59;4938767;28;45461;-51
2021/12/16 09:33:50;;;;;;;;;18.75;16.00;;;;;12.84;62.28;103324.81;4939988;28;45338;-52
2021/12/16 09:36:19;;;;;;;;;25.00;20.00;;;;;12.82;62.21;103315.88;4939498;28;45676;-52
2021/12/16 09:38:44;;;;;;;;;26.25;21.25;;;;;12.89;61.78;103326.53;4939831;28;46315;-51
2021/12/16 09:41:10;;;;;;;;;18.75;17.25;;;;;12.89;61.70;103322.94;4939455;28;45443;-50
2021/12/16 09:43:39;;;;;;;;;23.00;21.25;;;;;12.95;61.92;103339.00;4939423;28;45358;-53
2021/12/16 09:46:09;;;;;;;;;20.25;18.75;;;;;12.95;61.53;103336.31;4939161;28;45393;-52
2021/12/16 09:48:36;;;;;;;;;19.50;17.50;;;;;12.97;61.63;103337.19;4939599;28;47221;-51
2021/12/16 09:51:04;;;;;;;;;27.00;21.75;;;;;12.99;61.43;103343.44;4939312;28;45475;-49
2021/12/16 09:53:30;;;;;;;;;27.75;21.75;;;;;12.99;61.33;103339.84;4939672;28;45383;-51
2021/12/16 09:56:00;;;;;;;;;22.00;19.50;;;;;13.01;60.92;103348.81;4939251;28;45358;-52
2021/12/16 09:58:30;;;;;;;;;19.00;17.00;;;;;13.01;61.03;103348.81;4939624;28;47224;-53
2021/12/16 10:00:56;;;;;;;;;26.75;19.50;;;;;13.02;61.26;103350.56;4938791;28;45442;-50
2021/12/16 10:03:23;;;;;;;;;22.75;19.75;;;;;13.06;61.02;103358.59;4939744;28;45329;-53
2021/12/16 10:05:49;;;;;;;;;25.50;20.00;;;;;13.06;61.65;103357.69;4939281;28;45925;-53
2021/12/16 10:08:14;;;;;;;;;27.00;25.25;;;;;13.03;61.30;103338.88;4939483;28;46281;-50
2021/12/16 10:10:40;;;;;;;;;26.00;21.50;;;;;13.04;61.25;103344.25;4938975;28;45375;-50
2021/12/16 10:13:06;;;;;;;;;24.50;20.25;;;;;13.04;61.38;103348.75;4938667;28;45797;-51
2021/12/16 10:18:13;;;;;;;;;19.25;18.25;;;;;13.04;61.39;103351.44;4939300;28;46685;-51
2021/12/16 10:20:55;;;;;;;;;28.50;23.00;;;;;13.06;61.41;103353.19;4939054;28;45268;-50
2021/12/16 10:23:35;;;;;;;;;22.00;20.00;;;;;13.06;61.50;103360.38;4939651;28;45396;-52
2021/12/16 10:26:10;;;;;;;;;24.50;21.75;;;;;13.08;61.90;103361.25;4939438;28;45664;-52
2021/12/16 10:28:41;;;;;;;;;19.50;18.00;;;;;13.11;61.88;103356.69;4937342;28;46112;-54
2021/12/16 10:31:35;;;;;;;;;29.00;23.00;;;;;13.14;61.04;103354.00;4938889;28;45442;-54
2021/12/16 10:34:06;;;;;;;;;24.00;20.25;;;;;13.16;61.60;103352.19;4928087;28;45169;-55
2021/12/16 10:36:35;;;;;;;;;26.50;22.25;;;;;13.16;61.47;103354.00;4938790;28;45385;-51
2021/12/16 10:39:11;;;;;;;;;32.25;24.75;;;;;13.18;61.33;103349.47;4939231;28;46158;-53
2021/12/16 10:41:38;;;;;;;;;25.25;23.25;;;;;13.22;61.22;103348.50;4938689;28;45468;-52
2021/12/16 10:44:10;;;;;;;;;28.75;23.00;;;;;13.27;61.42;103357.38;4938982;28;45319;-53
2021/12/16 10:46:40;;;;;;;;;29.75;26.00;;;;;13.29;61.17;103352.88;4938309;28;45402;-51
2021/12/16 10:49:10;;;;;;;;;29.50;23.75;;;;;13.27;61.47;103344.81;4939314;28;45380;-50
2021/12/16 10:51:43;;;;;;;;;27.00;25.25;;;;;13.31;61.35;103348.38;4938867;28;45336;-50
2021/12/16 10:54:24;;;;;;;;;30.50;21.25;;;;;13.34;61.16;103347.44;4939234;28;45373;-49
2021/12/16 10:57:07;;;;;;;;;26.50;21.75;;;;;13.26;61.13;103323.31;4938599;28;45440;-48
2021/12/16 10:59:45;;;;;;;;;23.50;21.75;;;;;13.37;60.37;103345.56;4939137;28;47307;-50
2021/12/16 11:02:21;;;;;;;;;25.75;21.00;;;;;13.38;60.61;103346.44;4938767;28;45466;-53
2021/12/16 11:05:03;;;;;;;;;21.50;21.50;;;;;13.37;59.79;103344.66;4939005;28;45512;-52
2021/12/16 11:07:42;;;;;;;;;19.00;17.75;;;;;13.37;59.51;103336.59;4938664;28;45354;-51
2021/12/16 11:10:08;;;;;;;;;27.50;23.75;;;;;13.37;59.83;103347.38;4938599;28;45338;-50
2021/12/16 11:12:53;;;;;;;;;27.50;23.00;;;;;13.38;59.73;103343.75;4938560;28;45878;-50
2021/12/16 11:15:28;;;;;;;;;25.50;24.00;;;;;13.35;59.91;103350.09;4937734;28;45884;-49
2021/12/16 11:17:53;;;;;;;;;26.75;23.25;;;;;13.39;59.96;103353.63;4938219;28;45913;-52
2021/12/16 11:20:28;;;;;;;;;30.75;26.25;;;;;13.41;60.09;103344.63;4938051;28;46180;-51
2021/12/16 11:23:11;;;;;;;;;22.00;20.75;;;;;13.43;60.05;103350.88;4938652;28;45263;-58
2021/12/16 11:25:41;;;;;;;;;27.25;24.00;;;;;13.40;59.85;103345.53;4938702;28;45793;-50
2021/12/16 11:28:06;;;;;;;;;23.25;20.25;;;;;13.47;59.51;103347.19;4937075;28;45512;-49
2021/12/16 11:30:39;;;;;;;;;27.50;23.75;;;;;13.46;59.67;103358.88;4937043;28;45396;-49
2021/12/16 11:33:22;;;;;;;;;25.75;22.00;;;;;13.45;60.00;103346.31;4936173;28;45627;-48
2021/12/16 11:35:52;;;;;;;;;23.00;21.00;;;;;13.46;59.90;103353.50;4934265;28;45770;-50
2021/12/16 11:38:21;;;;;;;;;26.50;23.00;;;;;13.48;59.87;103345.38;4934351;28;45751;-49
2021/12/16 11:41:09;;;;;;;;;29.25;25.75;;;;;13.49;59.85;103341.78;4933995;28;45506;-47
2021/12/16 11:43:42;;;;;;;;;27.00;21.50;;;;;13.50;59.01;103343.56;4924017;28;45408;-48
2021/12/16 11:46:15;;;;;;;;;23.25;17.75;;;;;13.47;59.16;103335.53;4937411;28;45364;-50
2021/12/16 11:48:40;;;;;;;;;24.25;21.75;;;;;13.49;58.97;103328.31;4937934;28;45516;-50
2021/12/16 11:51:14;;;;;;;;;23.50;21.75;;;;;13.51;59.05;103338.16;4937251;28;46123;-50
2021/12/16 11:53:47;;;;;;;;;23.25;21.25;;;;;13.50;59.05;103330.97;4937845;28;45425;-51
2021/12/16 11:56:12;;;;;;;;;20.00;17.50;;;;;13.47;59.43;103331.03;4939869;28;45499;-50
2021/12/16 11:58:41;;;;;;;;;22.50;19.75;;;;;13.53;59.26;103332.72;4941213;28;45412;-52
2021/12/16 12:01:13;;;;;;;;;23.00;20.50;;;;;13.54;58.82;103330.00;4940469;28;46399;-48
2021/12/16 12:03:39;;;;;;;;;23.75;21.25;;;;;13.54;58.96;103337.19;4940637;28;45532;-49
2021/12/16 12:06:04;;;;;;;;;32.00;28.75;;;;;13.49;58.36;103328.31;4940934;28;45327;-52
2021/12/16 12:08:31;;;;;;;;;29.25;25.50;;;;;13.53;58.93;103330.03;4940849;28;45623;-47
2021/12/16 12:11:06;;;;;;;;;27.00;24.50;;;;;13.56;58.63;103329.97;4940355;28;47095;-50
2021/12/16 12:13:41;;;;;;;;;25.00;24.00;;;;;13.55;58.70;103326.41;4941273;28;45411;-52
2021/12/16 12:16:08;;;;;;;;;27.25;24.25;;;;;13.57;58.94;103332.66;4940352;28;45307;-49
2021/12/16 12:18:35;;;;;;;;;26.25;25.50;;;;;13.56;59.07;103321.91;4940730;28;45390;-53
2021/12/16 12:21:20;;;;;;;;;26.00;16.00;;;;;13.54;58.71;103327.31;4940873;28;45474;-51
2021/12/16 12:23:47;;;;;;;;;25.00;21.50;;;;;13.55;58.70;103326.41;4940584;28;45467;-54
2021/12/16 12:26:16;;;;;;;;;24.75;23.50;;;;;13.58;59.59;103318.25;4939962;28;45398;-53
2021/12/16 12:28:47;;;;;;;;;25.00;24.00;;;;;13.16;58.69;103240.88;4940163;28;46094;-53
2021/12/16 12:31:14;;;;;;;;;30.25;25.75;;;;;13.63;58.64;103329.84;4939652;28;46430;-53
2021/12/16 12:33:39;;;;;;;;;26.50;23.50;;;;;13.65;58.87;103324.44;4940543;28;45670;-50
2021/12/16 12:36:07;;;;;;;;;30.50;26.50;;;;;13.60;58.62;103308.34;4940633;28;45255;-55
2021/12/16 12:38:32;;;;;;;;;32.00;27.50;;;;;13.69;58.94;103318.09;4927095;28;45411;-59
2021/12/16 12:40:58;;;;;;;;;28.75;26.25;;;;;13.70;58.63;103316.25;4940140;28;47081;-51
2021/12/16 12:43:24;;;;;;;;;30.00;25.50;;;;;13.66;58.79;103314.53;4940601;28;45358;-49
2021/12/16 12:45:49;;;;;;;;;21.75;21.50;;;;;13.71;59.13;103324.31;4939958;28;45531;-52
2021/12/16 12:48:18;;;;;;;;;33.25;29.00;;;;;13.72;58.24;103319.81;4940196;28;45481;-48
2021/12/16 12:50:47;;;;;;;;;29.25;27.00;;;;;13.70;58.69;103314.44;4940205;28;46514;-51
2021/12/16 12:53:48;;;;;;;;;34.75;25.00;;;;;13.70;58.68;103314.44;4940005;28;45426;-50
2021/12/16 12:56:29;;;;;;;;;27.25;24.50;;;;;13.68;59.14;103301.94;4934928;28;45453;-52
2021/12/16 12:59:03;;;;;;;;;26.75;22.00;;;;;13.70;58.00;103310.84;4940139;28;45319;-48
2021/12/16 13:01:54;;;;;;;;;28.00;26.75;;;;;13.58;58.46;103293.13;4939355;28;46887;-47
2021/12/16 13:04:29;;;;;;;;;29.00;18.25;;;;;13.66;58.12;103299.25;4939884;28;45552;-49
2021/12/16 13:07:07;;;;;;;;;24.25;20.75;;;;;13.69;58.33;103295.63;4939772;28;45693;-51
2021/12/16 13:09:42;;;;;;;;;29.25;22.50;;;;;13.70;58.69;103300.97;4928536;28;45784;-50
2021/12/16 13:12:36;;;;;;;;;26.00;23.00;;;;;13.69;58.06;103301.03;4939604;28;46240;-48
2021/12/16 13:15:35;;;;;;;;;23.50;22.50;;;;;13.71;58.01;103301.84;4939714;28;45635;-49
2021/12/16 13:24:25;;;;;;;;;23.25;19.50;;;;;13.62;58.09;103292.13;4939893;28;45788;-51
2021/12/16 13:26:41;;;;;;;;;22.75;18.00;;;;;13.61;58.15;103287.66;4938979;28;45444;-52
2021/12/16 13:32:25;;;;;;;;;15.75;13.75;;;;;13.63;57.92;103288.53;4929881;28;45432;-51
2021/12/16 13:37:48;;;;;;;;;18.75;18.75;;;;;13.66;58.06;103282.19;4937129;28;45442;-52
2021/12/16 13:40:22;;;;;;;;;26.00;21.75;;;;;13.69;57.87;103274.06;4927274;28;45437;-48
2021/12/16 13:42:53;;;;;;;;;19.75;18.25;;;;;13.69;57.24;103277.66;4938898;28;45856;-48
2021/12/16 13:45:26;;;;;;;;;22.75;19.00;;;;;13.71;56.86;103278.47;4939788;28;46119;-51
2021/12/16 13:48:15;;;;;;;;;23.25;18.25;;;;;13.68;56.79;103278.56;4939990;28;45386;-50
2021/12/16 14:07:02;;;;;;;;;21.25;17.25;;;;;13.66;57.04;103287.59;4939552;28;46191;-51
2021/12/16 14:09:32;;;;;;;;;20.50;17.00;;;;;13.64;56.54;103293.00;4927881;28;45432;-52
2021/12/16 14:17:44;;;;;;;;;22.50;17.00;;;;;13.59;56.33;103279.63;4937721;28;45489;-52
2021/12/16 14:23:31;;;;;;;;;20.75;18.00;;;;;13.61;56.28;103276.88;4938943;28;45305;-52
2021/12/16 14:40:03;;;;;;;;;21.25;18.25;;;;;13.59;57.55;103276.91;4939294;28;45335;-51
2021/12/16 14:50:30;;;;;;;;;24.25;17.75;;;;;13.57;57.79;103283.25;4939237;28;46044;-49
2021/12/16 14:52:57;;;;;;;;;26.25;21.00;;;;;13.57;58.23;103291.34;4938910;28;45399;-50
2021/12/16 14:55:22;;;;;;;;;26.75;23.00;;;;;13.54;58.11;103289.56;4938919;28;45393;-50
2021/12/16 14:57:52;;;;;;;;;23.00;20.25;;;;;13.55;58.12;103287.78;4938506;28;45387;-51
2021/12/16 15:00:21;;;;;;;;;28.50;22.00;;;;;13.57;58.16;103294.03;4938510;28;46536;-49
2021/12/16 15:02:49;;;;;;;;;19.25;17.00;;;;;13.54;57.95;103302.16;4938685;28;45596;-52
2021/12/16 15:05:31;;;;;;;;;21.75;21.75;;;;;13.53;58.44;103303.97;4938874;28;45531;-51
2021/12/16 15:08:18;;;;;;;;;26.75;23.50;;;;;13.53;58.35;103297.69;4938911;28;45688;-50
2021/12/16 15:10:44;;;;;;;;;25.25;22.00;;;;;13.49;58.42;103293.28;4938708;28;46098;-50
2021/12/16 15:13:15;;;;;;;;;19.50;19.50;;;;;13.50;58.64;103295.94;4938824;28;45450;-50
2021/12/16 15:16:13;;;;;;;;;22.75;22.50;;;;;13.51;58.37;103292.34;4938600;28;45388;-52
2021/12/16 15:38:11;;;;;;;;;28.50;25.50;;;;;13.33;58.99;103294.47;4942076;28;45323;-51
2021/12/16 15:40:57;;;;;;;;;26.25;23.25;;;;;13.26;59.19;103285.59;4941919;28;45501;-50
2021/12/16 15:43:30;;;;;;;;;37.75;29.50;;;;;13.30;59.36;103295.38;4941659;28;46526;-48
2021/12/16 15:45:57;;;;;;;;;29.75;27.00;;;;;13.31;59.30;103299.88;4941903;28;45331;-51
2021/12/16 15:48:26;;;;;;;;;19.50;19.50;;;;;13.27;59.19;103302.66;4942079;28;45735;-51
2021/12/16 15:50:53;;;;;;;;;26.75;26.75;;;;;13.29;59.23;103293.59;4941763;28;45679;-50
2021/12/16 15:53:24;;;;;;;;;33.75;28.00;;;;;13.27;58.71;103302.66;4941689;28;46344;-48
2021/12/16 15:55:55;;;;;;;;;34.50;29.50;;;;;13.28;58.55;103305.28;4941883;28;45673;-49
2021/12/16 15:58:25;;;;;;;;;36.50;29.50;;;;;13.26;58.76;103304.44;4941659;28;45548;-52
2021/12/16 16:00:56;;;;;;;;;29.00;27.25;;;;;13.24;59.03;103300.88;4941302;28;45502;-53
2021/12/16 16:03:22;;;;;;;;;28.50;27.25;;;;;13.29;58.81;103306.19;4941402;28;47080;-49
2021/12/16 16:05:54;;;;;;;;;38.00;31.00;;;;;13.30;59.19;103311.56;4941545;28;45371;-49
2021/12/16 16:08:22;;;;;;;;;29.50;27.75;;;;;13.27;58.61;103307.09;4941774;28;45288;-52
2021/12/16 16:10:52;;;;;;;;;31.75;30.00;;;;;13.18;59.17;103291.06;4941160;28;45481;-50
2021/12/16 16:13:22;;;;;;;;;28.25;22.25;;;;;13.30;58.33;103302.56;4941415;28;45327;-51
2021/12/16 16:15:49;;;;;;;;;22.00;21.00;;;;;13.27;58.14;103317.88;4941286;28;45913;-49
2021/12/16 16:20:59;;;;;;;;;33.50;29.00;;;;;13.25;57.74;103305.38;4929798;28;45632;-49
2021/12/16 16:23:27;;;;;;;;;30.25;29.75;;;;;13.27;57.77;103313.44;4941133;28;45389;-52
2021/12/16 16:25:53;;;;;;;;;32.75;25.25;;;;;13.24;58.16;103311.66;4941272;28;45257;-53
2021/12/16 16:28:21;;;;;;;;;37.50;28.75;;;;;13.25;58.16;103316.13;4937435;28;45256;-54
2021/12/16 16:30:51;;;;;;;;;30.50;27.75;;;;;13.13;58.04;103290.28;4940886;28;45683;-50
2021/12/16 16:33:19;;;;;;;;;30.50;27.50;;;;;13.17;57.51;103320.75;4940920;28;46243;-49
2021/12/16 16:35:58;;;;;;;;;32.75;29.50;;;;;13.18;57.84;103314.47;4941392;28;45374;-52
2021/12/16 16:38:28;;;;;;;;;31.50;30.00;;;;;13.21;58.02;103323.38;4939547;28;45498;-51
2021/12/16 16:40:55;;;;;;;;;36.25;32.25;;;;;13.17;57.63;103321.66;4937822;28;45187;-52
2021/12/16 16:43:37;;;;;;;;;31.50;28.00;;;;;13.20;57.95;103324.28;4939990;28;46348;-53
2021/12/16 16:46:17;;;;;;;;;33.25;30.25;;;;;13.21;57.74;103334.13;4939390;28;45697;-52
2021/12/16 16:48:54;;;;;;;;;30.50;27.75;;;;;13.18;57.43;103333.31;4940145;28;45669;-54
2021/12/16 16:51:26;;;;;;;;;28.00;23.00;;;;;13.15;57.61;103330.66;4940769;28;45944;-54
2021/12/16 16:54:27;;;;;;;;;33.25;29.50;;;;;13.08;57.07;103332.53;4940151;28;46361;-49
2021/12/16 16:57:13;;;;;;;;;33.00;26.00;;;;;13.12;57.22;103339.63;4929913;28;45497;-50
2021/12/16 16:59:52;;;;;;;;;22.75;20.75;;;;;13.09;57.36;103331.63;4940434;28;45192;-51
2021/12/16 17:02:31;;;;;;;;;42.50;30.75;;;;;13.11;57.60;103337.84;4941735;28;45462;-50
2021/12/16 17:04:56;;;;;;;;;38.00;34.00;;;;;13.13;57.29;103335.13;4941816;28;45391;-51
2021/12/16 17:07:22;;;;;;;;;32.00;28.50;;;;;13.10;57.28;103329.81;4942082;28;45291;-50
2021/12/16 17:09:47;;;;;;;;;34.75;29.75;;;;;13.13;57.49;103333.38;4942222;28;45389;-50
2021/12/16 17:12:15;;;;;;;;;26.25;24.25;;;;;13.12;56.94;103338.75;4942118;28;45235;-48
2021/12/16 17:14:52;;;;;;;;;27.75;18.50;;;;;13.13;57.04;103338.75;4943945;28;45804;-50
2021/12/16 17:17:23;;;;;;;;;34.25;29.00;;;;;13.07;57.01;103329.84;4939718;28;45441;-50
2021/12/16 17:20:04;;;;;;;;;20.50;20.50;;;;;13.08;56.61;103337.03;4941880;28;45380;-54
2021/12/16 17:22:40;;;;;;;;;27.00;26.75;;;;;13.09;56.79;103334.31;4941256;28;45432;-51
2021/12/16 17:25:09;;;;;;;;;26.75;24.25;;;;;13.09;57.15;103336.13;4941603;28;46606;-49
2021/12/16 17:27:40;;;;;;;;;32.25;23.00;;;;;13.12;56.80;103338.75;4938987;28;45323;-58
2021/12/16 17:30:15;;;;;;;;;29.50;25.50;;;;;13.17;56.61;103342.31;4941593;28;45371;-58
2021/12/16 17:32:44;;;;;;;;;29.25;28.00;;;;;13.18;56.52;103336.00;4941681;28;46063;-58
2021/12/16 17:35:13;;;;;;;;;26.00;25.75;;;;;13.21;57.11;103335.94;4941014;28;48512;-58
2021/12/16 17:37:44;;;;;;;;;35.25;24.75;;;;;13.21;57.13;103334.13;4941697;28;45366;-59
2021/12/16 17:40:41;;;;;;;;;30.00;26.75;;;;;13.16;56.61;103329.75;4941748;28;45232;-48
2021/12/16 17:43:33;;;;;;;;;27.00;22.50;;;;;13.21;56.47;103339.53;4941142;28;46125;-50
2021/12/16 17:46:19;;;;;;;;;26.00;25.75;;;;;13.18;56.66;103339.56;4940266;28;47764;-49
2021/12/16 17:48:48;;;;;;;;;29.50;25.50;;;;;13.13;56.85;103343.22;4941592;28;45195;-50
2021/12/16 17:51:18;;;;;;;;;28.75;23.75;;;;;13.10;56.53;103337.91;4941208;28;45371;-50
2021/12/16 17:53:51;;;;;;;;;30.50;27.25;;;;;13.05;56.95;103343.34;4940562;28;45229;-50
2021/12/16 17:56:17;;;;;;;;;22.25;22.25;;;;;12.99;56.69;103342.53;4941215;28;45346;-49
2021/12/16 17:58:47;;;;;;;;;25.75;21.75;;;;;12.96;56.46;103348.84;4941746;28;45521;-50
2021/12/16 18:01:18;;;;;;;;;20.25;18.50;;;;;12.89;56.54;103344.47;4941160;28;45595;-48
2021/12/16 18:03:49;;;;;;;;;27.50;25.75;;;;;12.82;56.81;103340.97;4941544;28;45257;-48
2021/12/16 18:06:19;;;;;;;;;29.75;24.00;;;;;12.81;57.17;103349.06;4941405;28;46238;-51
2021/12/16 18:08:50;;;;;;;;;30.50;25.75;;;;;12.76;57.07;103337.50;4941046;28;45176;-51
2021/12/16 18:11:20;;;;;;;;;20.50;19.50;;;;;12.72;57.11;103333.94;4941500;28;45324;-48
2021/12/16 18:13:50;;;;;;;;;26.00;25.25;;;;;12.68;57.63;103334.88;4941175;28;46371;-47
2021/12/16 18:16:22;;;;;;;;;29.25;25.75;;;;;12.65;57.87;103347.50;4940778;28;46558;-50
2021/12/16 18:18:51;;;;;;;;;32.00;28.50;;;;;12.59;57.53;103335.00;4941109;28;45381;-50
2021/12/16 18:21:16;;;;;;;;;30.50;25.00;;;;;12.58;58.05;103344.00;4941212;28;45327;-51
2021/12/16 18:23:53;;;;;;;;;32.75;29.75;;;;;12.55;58.39;103337.75;4941017;28;45319;-49
2021/12/16 18:26:18;;;;;;;;;30.00;25.00;;;;;12.45;58.16;103328.91;4938515;28;47225;-52
2021/12/16 18:28:48;;;;;;;;;27.00;24.75;;;;;12.52;58.44;103333.31;4940330;28;45319;-52
2021/12/16 18:31:16;;;;;;;;;28.75;26.00;;;;;12.54;58.13;103341.34;4940783;28;45358;-55
2021/12/16 18:33:48;;;;;;;;;37.75;25.50;;;;;12.50;58.03;103343.22;4941073;28;45536;-49
2021/12/16 18:36:19;;;;;;;;;39.25;31.75;;;;;12.48;58.47;103345.03;4940799;28;46382;-50
2021/12/16 18:38:56;;;;;;;;;26.75;25.25;;;;;12.46;58.49;103344.16;4940938;28;45327;-49